Aubrey, Arkansas
Current Conditions -  °F | °C
As of 6:15 PM on Saturday 25 Oct 2014 (Local Time) from KUTA Reporting Station
Clear Clear  
Wind Chill: 77°   Ceiling: Unl
Heat Index: 79°   Visibility: 10mi
Dew Point: 63°   Wind: 5mph
Humidity: 61%   Direction: 220°SW
Pressure: 30.02"   Gusts: NA
Location:  34.72°N, 90.9°W
Report Text: KUTA 252315Z AUTO 22004KT 10SM CLR 25/17 A3002 RMK AO2
Loading
Personal Weather Stations






























Interactive Weather Map
Tropical Storm Tracking
New forecast layout! Learn more

10-Day Weather Forecast

Advertisements
Track Severe Weather on mobile